Time;durP1;ratioP1;P1;durP2;ratioP2;P2;SDS_P1;SDS_P2;PMS_P1;PMS_P2;Temp;Humidity;BMP_temperature;BMP_pressure;BME280_temperature;BME280_humidity;BME280_pressure;Samples;Min_cycle;Max_cycle;Signal;HPM_P1;HPM_P2
2021/03/01 00:01:33;;;;;;;9.80;7.22;;;;;;;2.24;100.00;99597.29;1752964;81;21556;-66
2021/03/01 00:04:05;;;;;;;10.23;7.50;;;;;;;2.24;100.00;99601.20;1752372;81;22255;-66
2021/03/01 00:06:36;;;;;;;8.55;6.97;;;;;;;2.25;100.00;99599.06;1757879;81;21159;-66
2021/03/01 00:09:08;;;;;;;8.88;6.80;;;;;;;2.25;100.00;99600.78;1758242;81;21572;-66
2021/03/01 00:11:42;;;;;;;8.88;7.05;;;;;;;2.24;100.00;99602.50;1757778;81;21512;-66
2021/03/01 00:14:15;;;;;;;9.93;7.60;;;;;;;2.21;100.00;99595.89;1758039;81;21659;-65
2021/03/01 00:16:49;;;;;;;10.13;7.00;;;;;;;2.23;100.00;99608.53;1763484;81;20941;-64
2021/03/01 00:19:22;;;;;;;10.75;7.15;;;;;;;2.20;100.00;99608.43;1763278;81;21626;-66
2021/03/01 00:21:52;;;;;;;11.30;7.67;;;;;;;2.20;100.00;99606.71;1763401;81;21187;-66
2021/03/01 00:24:23;;;;;;;9.40;7.08;;;;;;;2.22;100.00;99609.38;1763610;81;21139;-65
2021/03/01 00:26:59;;;;;;;9.25;7.20;;;;;;;2.24;100.00;99609.00;1739838;81;21009;-65
2021/03/01 00:29:27;;;;;;;9.05;6.90;;;;;;;2.23;100.00;99604.63;1763417;81;22778;-67
2021/03/01 00:32:02;;;;;;;9.50;7.67;;;;;;;2.23;100.00;99603.33;1752654;81;21215;-66
2021/03/01 14:59:47;;;;;;;6.25;4.12;;;;;;;2.45;100.00;100407.00;1924402;74;22791;-66
2021/03/01 15:02:16;;;;;;;5.65;3.58;;;;;;;2.40;100.00;100412.00;1894857;75;20979;-65
2021/03/01 15:04:46;;;;;;;5.17;3.47;;;;;;;2.38;100.00;100419.26;1894823;75;21179;-66
2021/03/01 15:07:16;;;;;;;3.87;3.00;;;;;;;2.38;100.00;100419.26;1894616;75;20983;-66
2021/03/01 15:09:46;;;;;;;3.60;2.87;;;;;;;2.36;100.00;100424.36;1894797;75;21018;-65
2021/03/01 15:12:15;;;;;;;3.70;3.00;;;;;;;2.36;100.00;100424.36;1894851;75;21041;-65
2021/03/01 15:14:46;;;;;;;3.87;2.80;;;;;;;2.37;100.00;100420.08;1873088;75;21599;-60
2021/03/01 15:17:16;;;;;;;4.67;3.22;;;;;;;2.40;100.00;100426.73;1869334;75;22166;-65
2021/03/01 15:19:45;;;;;;;5.75;4.80;;;;;;;2.39;100.00;100421.94;1873920;74;21085;-60
2021/03/01 15:22:14;;;;;;;4.55;3.52;;;;;;;2.40;100.00;100428.92;1896727;74;20985;-63
2021/03/01 15:24:44;;;;;;;5.05;3.80;;;;;;;2.42;100.00;100427.70;1880139;75;20919;-70
2021/03/01 15:27:13;;;;;;;6.05;2.92;;;;;;;2.38;100.00;100427.07;1884876;75;21074;-64
2021/03/01 15:29:43;;;;;;;2.10;1.90;;;;;;;2.35;100.00;100431.69;1894628;75;21360;-63
2021/03/01 15:32:13;;;;;;;2.80;1.92;;;;;;;2.34;100.00;100439.44;1894795;75;21152;-62
2021/03/01 15:34:42;;;;;;;1.72;1.62;;;;;;;2.35;100.00;100439.91;1893777;74;21115;-63
2021/03/01 15:37:12;;;;;;;3.20;2.00;;;;;;;2.30;100.00;100443.60;1894844;74;21008;-64
2021/03/01 15:39:41;;;;;;;4.22;2.50;;;;;;;2.27;100.00;100448.66;1894751;75;21560;-64
2021/03/01 15:42:11;;;;;;;3.95;2.17;;;;;;;2.26;100.00;100443.39;1894738;75;21186;-64
2021/03/01 15:44:40;;;;;;;2.42;2.10;;;;;;;2.24;100.00;100448.94;1894660;75;20967;-62
2021/03/01 15:47:10;;;;;;;2.17;1.85;;;;;;;2.17;100.00;100447.34;1894805;75;20982;-64
2021/03/01 15:49:39;;;;;;;2.87;2.02;;;;;;;2.12;100.00;100452.73;1894784;75;21541;-64
2021/03/01 15:52:10;;;;;;;2.92;2.00;;;;;;;2.13;100.00;100441.91;1891692;75;21139;-63
2021/03/01 15:54:39;;;;;;;2.67;2.10;;;;;;;2.15;100.00;100449.39;1888687;74;21183;-63
2021/03/01 15:57:08;;;;;;;3.55;1.75;;;;;;;2.15;100.00;100450.69;1884554;75;21494;-64
2021/03/01 15:59:38;;;;;;;2.25;1.60;;;;;;;2.18;100.00;100458.64;1852917;75;20922;-65
2021/03/01 16:02:10;;;;;;;1.80;1.52;;;;;;;2.20;100.00;100461.80;1845491;77;20910;-66
2021/03/01 16:04:39;;;;;;;2.98;1.95;;;;;;;2.22;100.00;100455.37;1843364;77;21481;-64
2021/03/01 16:07:10;;;;;;;1.72;1.62;;;;;;;2.24;100.00;100460.65;1847984;77;21470;-65
2021/03/01 16:09:40;;;;;;;5.53;2.08;;;;;;;2.26;100.00;100463.80;1772277;79;21480;-62
2021/03/01 16:12:10;;;;;;;4.53;2.22;;;;;;;2.24;100.00;100464.14;1799011;79;21120;-64
2021/03/01 16:14:39;;;;;;;3.87;2.58;;;;;;;2.23;100.00;100464.96;1770409;79;20958;-63
2021/03/01 16:17:10;;;;;;;4.33;3.00;;;;;;;2.22;100.00;100470.98;1776460;78;21122;-62
2021/03/01 16:19:40;;;;;;;4.90;2.58;;;;;;;2.21;100.00;100474.41;1771933;79;21366;-60
2021/03/01 16:22:10;;;;;;;7.65;3.12;;;;;;;2.20;100.00;100472.22;1771943;81;21119;-61
2021/03/01 16:24:53;;;;;;;4.28;2.80;;;;;;;2.22;100.00;100482.70;1679993;83;21067;-65
2021/03/01 16:27:22;;;;;;;2.65;2.40;;;;;;;2.24;100.00;100482.78;1732950;81;21053;-63
2021/03/01 16:29:51;;;;;;;2.55;1.82;;;;;;;2.20;100.00;100489.55;1733152;81;21176;-62
2021/03/01 16:32:21;;;;;;;2.90;2.22;;;;;;;2.15;100.00;100490.63;1733021;81;22089;-66
2021/03/01 16:34:51;;;;;;;10.18;2.58;;;;;;;2.08;100.00;100494.16;1732869;81;21188;-65
2021/03/01 16:37:20;;;;;;;3.22;2.30;;;;;;;2.02;100.00;100496.05;1733097;81;21243;-64
2021/03/01 16:39:50;;;;;;;4.50;2.58;;;;;;;1.99;100.00;100501.52;1740542;81;21594;-64
2021/03/01 16:42:24;;;;;;;3.10;2.45;;;;;;;1.95;100.00;100501.77;1733018;81;21009;-64
2021/03/01 16:44:54;;;;;;;2.72;2.47;;;;;;;1.93;100.00;100499.50;1736053;79;22284;-64
2021/03/01 16:47:28;;;;;;;4.37;2.77;;;;;;;1.89;100.00;100509.23;1738387;82;21194;-66
2021/03/01 16:49:59;;;;;;;5.90;3.67;;;;;;;1.86;100.00;100503.89;1728883;82;21046;-67
2021/03/01 16:52:28;;;;;;;7.72;5.30;;;;;;;1.85;100.00;100507.30;1733567;82;21064;-63
2021/03/01 16:54:58;;;;;;;8.85;6.55;;;;;;;1.86;100.00;100510.39;1729538;82;21143;-64
2021/03/01 16:57:31;;;;;;;7.42;5.45;;;;;;;1.90;100.00;100520.17;1729611;83;21214;-63
2021/03/01 17:00:01;;;;;;;7.97;5.40;;;;;;;1.90;100.00;100525.37;1729512;83;21096;-65
2021/03/01 17:02:30;;;;;;;6.45;4.97;;;;;;;1.90;100.00;100529.28;1729582;82;20918;-66
2021/03/01 17:05:00;;;;;;;7.35;4.15;;;;;;;1.89;100.00;100532.66;1730194;82;21005;-64
2021/03/01 17:07:32;;;;;;;9.63;3.67;;;;;;;1.92;100.00;100536.75;1736972;81;21000;-65
2021/03/01 17:10:10;;;;;;;;;;;;;;;1.93;100.00;100537.23;1739397;81;21376;-63
2021/03/01 17:12:46;;;;;;;9.50;5.20;;;;;;;1.98;100.00;100547.88;1737096;81;20504;-64
2021/03/01 17:15:16;;;;;;;8.80;5.42;;;;;;;2.01;100.00;100546.73;1735402;82;21498;-65
2021/03/01 17:17:45;;;;;;;9.03;4.90;;;;;;;2.01;100.00;100546.31;1707675;83;21012;-66
2021/03/01 17:20:16;;;;;;;5.62;3.70;;;;;;;2.03;100.00;100543.79;1735406;82;21115;-64
2021/03/01 17:22:46;;;;;;;3.75;2.80;;;;;;;2.04;100.00;100554.28;1707583;83;21205;-64
2021/03/01 17:25:16;;;;;;;4.83;2.70;;;;;;;2.05;100.00;100548.66;1738673;81;21650;-64
2021/03/01 17:27:46;;;;;;;3.12;2.70;;;;;;;2.10;100.00;100553.69;1768246;80;21488;-65
2021/03/01 17:30:17;;;;;;;2.95;2.45;;;;;;;2.11;100.00;100555.48;1775835;80;21075;-65
2021/03/01 17:32:46;;;;;;;6.22;2.70;;;;;;;2.11;100.00;100549.86;1738147;81;21145;-62
2021/03/01 17:35:16;;;;;;;6.10;3.17;;;;;;;2.11;100.00;100553.77;1767334;81;21193;-64
2021/03/01 17:37:46;;;;;;;3.80;2.98;;;;;;;2.12;100.00;100549.05;1767080;81;21008;-65
2021/03/01 17:40:17;;;;;;;3.85;3.10;;;;;;;2.13;100.00;100547.33;1767305;80;20988;-65
2021/03/01 17:42:48;;;;;;;3.20;2.90;;;;;;;2.16;100.00;100542.28;1740728;81;20972;-65
2021/03/01 17:45:17;;;;;;;4.30;3.40;;;;;;;2.19;100.00;100546.33;1735845;81;21119;-66
2021/03/01 17:48:02;;;;;;;3.58;2.90;;;;;;;2.23;100.00;100548.68;1737037;81;21212;-66
2021/03/01 17:50:37;;;;;;;4.87;3.05;;;;;;;2.24;100.00;100545.26;1733053;81;21067;-64
2021/03/01 17:53:31;;;;;;;3.80;3.08;;;;;;;2.25;100.00;100550.95;1718810;81;21633;-65
2021/03/01 17:56:21;;;;;;;4.85;3.40;;;;;;;2.24;100.00;100551.36;1729031;81;21163;-64
2021/03/01 17:59:07;;;;;;;5.97;3.80;;;;;;;2.26;100.00;100550.13;1708147;83;21602;-63
2021/03/01 18:01:41;;;;;;;4.60;3.80;;;;;;;2.24;100.00;100547.45;1707587;81;21796;-66
2021/03/01 18:04:12;;;;;;;4.12;3.27;;;;;;;2.24;100.00;100546.16;1732859;81;20953;-66
2021/03/01 18:06:47;;;;;;;6.00;3.72;;;;;;;2.21;100.00;100540.80;1697029;84;21529;-67
2021/03/01 18:09:18;;;;;;;4.72;3.55;;;;;;;2.23;100.00;100540.87;1749596;81;20950;-65
2021/03/01 18:11:47;;;;;;;5.85;3.40;;;;;;;2.24;100.00;100542.25;1750453;81;21489;-65
2021/03/01 18:14:16;;;;;;;3.98;3.45;;;;;;;2.26;100.00;100540.61;1750323;81;21239;-65
2021/03/01 18:16:48;;;;;;;4.47;3.37;;;;;;;2.30;100.00;100537.34;1739972;82;20933;-65
2021/03/01 18:19:20;;;;;;;5.00;4.00;;;;;;;2.32;100.00;100530.91;1711364;82;21617;-65
2021/03/01 18:21:49;;;;;;;4.67;3.67;;;;;;;2.33;100.00;100533.58;1742907;81;21154;-66
2021/03/01 18:24:18;;;;;;;5.10;3.98;;;;;;;2.33;100.00;100539.20;1724821;83;21458;-66
2021/03/01 18:26:49;;;;;;;5.10;3.87;;;;;;;2.32;100.00;100538.30;1685193;84;21546;-65
2021/03/01 18:29:18;;;;;;;5.55;4.47;;;;;;;2.33;100.00;100537.48;1683723;82;20982;-63
2021/03/01 18:31:58;;;;;;;5.45;4.22;;;;;;;2.33;100.00;100539.20;1706666;83;20950;-66
2021/03/01 18:34:32;;;;;;;5.85;4.70;;;;;;;2.34;100.00;100540.98;1706686;83;21507;-66
2021/03/01 18:37:08;;;;;;;6.20;5.08;;;;;;;2.36;100.00;100538.94;1706628;83;21265;-66
2021/03/01 18:39:41;;;;;;;11.18;5.35;;;;;;;2.35;100.00;100539.75;1734791;82;21206;-66
2021/03/01 18:42:12;;;;;;;5.72;4.83;;;;;;;2.35;100.00;100547.56;1739237;82;20981;-65
2021/03/01 18:44:41;;;;;;;6.03;4.45;;;;;;;2.34;100.00;100545.78;1720696;82;21025;-66
2021/03/01 18:47:11;;;;;;;5.62;4.42;;;;;;;2.32;100.00;100551.73;1718036;82;21491;-66
2021/03/01 18:49:40;;;;;;;6.55;5.10;;;;;;;2.31;100.00;100551.25;1769471;80;20960;-66
2021/03/01 18:52:10;;;;;;;5.78;4.78;;;;;;;2.30;100.00;100550.77;1768277;79;22272;-66
2021/03/01 18:54:40;;;;;;;6.05;4.58;;;;;;;2.29;100.00;100553.78;1738624;81;21515;-63
2021/03/01 18:57:09;;;;;;;8.60;5.03;;;;;;;2.29;100.00;100552.89;1738679;81;20941;-64
2021/03/01 18:59:42;;;;;;;8.55;5.10;;;;;;;2.30;100.00;100562.48;1738520;82;20961;-66
2021/03/01 19:02:11;;;;;;;6.03;4.83;;;;;;;2.26;100.00;100566.64;1738672;82;21083;-66
2021/03/01 19:04:41;;;;;;;4.85;4.35;;;;;;;2.22;100.00;100569.91;1749216;81;21466;-63
2021/03/01 19:07:10;;;;;;;5.72;4.70;;;;;;;2.18;100.00;100571.88;1758357;81;21096;-65
2021/03/01 19:09:40;;;;;;;6.35;5.00;;;;;;;2.18;100.00;100576.68;1780229;79;21036;-69
2021/03/01 19:12:10;;;;;;;6.87;5.60;;;;;;;2.20;100.00;100572.85;1783850;79;21104;-62
2021/03/01 19:14:41;;;;;;;7.35;5.35;;;;;;;2.19;100.00;100574.97;1766031;80;21033;-65
2021/03/01 19:17:11;;;;;;;6.75;5.45;;;;;;;2.17;100.00;100577.50;1731390;82;21200;-67
2021/03/01 19:19:46;;;;;;;7.37;5.97;;;;;;;2.14;100.00;100587.76;1736091;82;21085;-63
2021/03/01 19:22:15;;;;;;;8.63;6.17;;;;;;;2.15;100.00;100587.35;1738606;82;21157;-64
2021/03/01 19:24:45;;;;;;;7.28;6.20;;;;;;;2.15;100.00;100589.55;1731470;82;21498;-64
2021/03/01 19:27:14;;;;;;;11.65;7.28;;;;;;;2.17;100.00;100594.83;1740934;81;21084;-64
2021/03/01 19:29:45;;;;;;;9.75;6.87;;;;;;;2.16;100.00;100590.03;1771671;79;21250;-63
2021/03/01 19:32:13;;;;;;;9.03;6.87;;;;;;;2.16;100.00;100593.04;1781005;79;20943;-65
2021/03/01 19:34:44;;;;;;;8.38;6.75;;;;;;;2.13;100.00;100584.67;1745435;80;20994;-65
2021/03/01 19:37:13;;;;;;;7.55;6.37;;;;;;;2.10;100.00;100588.83;1769101;79;21067;-64
2021/03/01 19:39:42;;;;;;;8.73;6.70;;;;;;;2.04;100.00;100591.12;1753579;81;21119;-63
2021/03/01 19:42:11;;;;;;;6.37;5.33;;;;;;;2.02;100.00;100588.85;1785572;79;21482;-64
2021/03/01 19:44:42;;;;;;;7.05;5.28;;;;;;;2.01;100.00;100587.06;1791584;79;21588;-65
2021/03/01 19:47:12;;;;;;;7.55;5.50;;;;;;;2.02;100.00;100586.25;1770543;79;21087;-66
2021/03/01 19:49:44;;;;;;;6.15;5.53;;;;;;;2.03;100.00;100585.44;1752711;81;20948;-67
2021/03/01 19:52:13;;;;;;;5.97;5.37;;;;;;;2.03;100.00;100585.44;1769537;80;20980;-65
2021/03/01 19:54:43;;;;;;;7.12;5.58;;;;;;;2.04;100.00;100580.71;1701547;84;21519;-65
2021/03/01 19:57:12;;;;;;;6.67;5.28;;;;;;;2.03;100.00;100580.23;1733173;82;21579;-65
2021/03/01 19:59:41;;;;;;;6.05;4.80;;;;;;;2.04;100.00;100585.51;1731628;82;21037;-65
2021/03/01 20:02:11;;;;;;;5.62;4.92;;;;;;;2.05;100.00;100562.98;1731633;82;21030;-65
2021/03/01 20:04:40;;;;;;;7.03;4.60;;;;;;;2.05;100.00;100565.58;1733566;82;21634;-66
2021/03/01 20:07:10;;;;;;;5.12;4.60;;;;;;;2.07;100.00;100563.54;1750394;82;21571;-64
2021/03/01 20:09:42;;;;;;;6.03;4.33;;;;;;;2.08;100.00;100554.02;1750303;82;20989;-65
2021/03/01 20:12:12;;;;;;;6.60;4.70;;;;;;;2.12;100.00;100554.66;1750321;81;21021;-64
2021/03/01 20:14:41;;;;;;;5.05;3.77;;;;;;;2.14;100.00;100566.04;1750265;82;21025;-65
2021/03/01 20:17:11;;;;;;;4.10;3.33;;;;;;;2.14;100.00;100564.73;1750344;82;21181;-65
2021/03/01 20:19:43;;;;;;;4.40;3.58;;;;;;;2.16;100.00;100557.89;1750440;82;21347;-66
2021/03/01 20:22:13;;;;;;;5.03;3.80;;;;;;;2.16;100.00;100561.80;1750347;82;21607;-64
2021/03/01 20:24:42;;;;;;;5.08;3.85;;;;;;;2.19;100.00;100552.84;1746604;81;21602;-65
2021/03/01 20:27:11;;;;;;;5.05;4.00;;;;;;;2.22;100.00;100564.71;1729476;82;21617;-66
2021/03/01 20:29:42;;;;;;;5.00;4.33;;;;;;;2.21;100.00;100567.72;1706554;84;21624;-66
2021/03/01 20:32:12;;;;;;;4.45;4.00;;;;;;;2.22;100.00;100563.41;1732514;82;21213;-65
2021/03/01 20:34:41;;;;;;;4.33;3.90;;;;;;;2.23;100.00;100564.30;1687218;84;21055;-64
2021/03/01 20:37:11;;;;;;;5.97;4.80;;;;;;;2.25;100.00;100565.27;1736986;81;21689;-65
2021/03/01 20:39:42;;;;;;;6.37;5.08;;;;;;;2.28;100.00;100566.31;1731699;82;21045;-64
2021/03/01 20:42:12;;;;;;;7.53;5.62;;;;;;;2.32;100.00;100567.36;1731471;82;21037;-64
2021/03/01 20:44:42;;;;;;;7.70;5.47;;;;;;;2.32;100.00;100570.85;1706486;84;21267;-64
2021/03/01 20:47:12;;;;;;;8.33;5.97;;;;;;;2.32;100.00;100570.85;1696919;83;21207;-64
2021/03/01 20:49:44;;;;;;;8.18;6.25;;;;;;;2.32;100.00;100569.55;1733196;82;21198;-65
2021/03/01 20:52:14;;;;;;;12.23;7.08;;;;;;;2.32;100.00;100563.45;1711599;82;21608;-64
2021/03/01 20:54:44;;;;;;;10.38;6.50;;;;;;;2.32;100.00;100563.45;1732495;82;21156;-64
2021/03/01 20:57:16;;;;;;;10.48;6.80;;;;;;;2.34;100.00;100558.80;1735505;81;21197;-65
2021/03/01 20:59:50;;;;;;;9.70;6.12;;;;;;;2.34;100.00;100559.21;1731368;81;20967;-65
2021/03/01 21:02:20;;;;;;;8.93;6.30;;;;;;;2.33;100.00;100560.03;1730847;81;21085;-64
2021/03/01 21:04:55;;;;;;;7.90;6.20;;;;;;;2.33;100.00;100562.63;1731240;81;20945;-62
2021/03/01 21:07:25;;;;;;;6.65;5.67;;;;;;;2.32;100.00;100557.83;1736019;81;21055;-64
2021/03/01 21:09:56;;;;;;;7.25;5.67;;;;;;;2.31;100.00;100554.74;1713668;83;22621;-65
2021/03/01 21:12:28;;;;;;;6.78;5.30;;;;;;;2.31;100.00;100553.85;1736487;81;20954;-65
2021/03/01 21:14:57;;;;;;;6.75;5.90;;;;;;;2.31;100.00;100559.06;1716307;83;20967;-65
2021/03/01 21:17:27;;;;;;;7.25;6.22;;;;;;;2.31;100.00;100556.45;1691096;83;20932;-65
2021/03/01 21:19:58;;;;;;;7.15;5.85;;;;;;;2.32;100.00;100560.44;1706699;82;21090;-64
2021/03/01 21:22:32;;;;;;;8.65;6.10;;;;;;;2.34;100.00;100567.02;1728205;81;21302;-64
2021/03/01 21:25:03;;;;;;;9.63;6.05;;;;;;;2.34;100.00;100561.81;1733645;81;21583;-65
2021/03/01 21:27:32;;;;;;;8.43;6.42;;;;;;;2.33;100.00;100551.81;1734121;81;21547;-65
2021/03/01 21:30:04;;;;;;;9.75;6.90;;;;;;;2.35;100.00;100555.37;1735997;81;21012;-65
2021/03/01 21:32:35;;;;;;;8.50;6.87;;;;;;;2.36;100.00;100551.95;1717318;83;21568;-65
2021/03/01 21:35:06;;;;;;;8.78;7.12;;;;;;;2.38;100.00;100547.75;1717325;83;21351;-65
2021/03/01 21:37:36;;;;;;;10.82;7.20;;;;;;;2.39;100.00;100550.84;1717284;83;21093;-64
2021/03/01 21:40:08;;;;;;;11.33;6.97;;;;;;;2.39;100.00;100546.04;1695332;83;20942;-65
2021/03/01 21:42:38;;;;;;;12.13;7.50;;;;;;;2.38;100.00;100543.84;1717602;83;21073;-66
2021/03/01 21:45:10;;;;;;;10.53;7.42;;;;;;;2.39;100.00;100544.73;1717348;83;21603;-65
2021/03/01 21:47:39;;;;;;;7.80;5.30;;;;;;;2.37;100.00;100547.27;1728117;82;21219;-65
2021/03/01 21:50:10;;;;;;;8.58;7.45;;;;;;;2.38;100.00;100551.66;1749825;82;21077;-65
2021/03/01 21:52:39;;;;;;;8.50;7.53;;;;;;;2.39;100.00;100551.25;1749605;82;21064;-66
2021/03/01 21:55:12;;;;;;;15.72;7.78;;;;;;;2.38;100.00;100549.05;1749710;82;21232;-64
2021/03/01 21:57:41;;;;;;;10.00;7.72;;;;;;;2.37;100.00;100540.75;1749403;81;21543;-65
2021/03/01 22:00:18;;;;;;;11.35;7.87;;;;;;;2.38;100.00;100542.54;1734593;82;21531;-65
2021/03/01 22:02:59;;;;;;;13.03;8.43;;;;;;;2.39;100.00;100542.13;1747329;82;21171;-66
2021/03/01 22:05:29;;;;;;;11.35;7.95;;;;;;;2.40;100.00;100542.61;1721465;83;20979;-66
2021/03/01 22:07:58;;;;;;;12.33;8.58;;;;;;;2.40;100.00;100547.41;1740571;82;20954;-67
2021/03/01 22:10:28;;;;;;;13.55;9.08;;;;;;;2.41;100.00;100543.09;1727631;83;21072;-66
2021/03/01 22:12:57;;;;;;;12.25;8.13;;;;;;;2.39;100.00;100546.93;1758401;81;21203;-66
2021/03/01 22:15:27;;;;;;;11.05;8.55;;;;;;;2.39;100.00;100549.53;1751038;82;20942;-65
2021/03/01 22:17:58;;;;;;;12.70;8.58;;;;;;;2.37;100.00;100547.67;1734288;82;20965;-66
2021/03/01 22:20:29;;;;;;;14.47;9.05;;;;;;;2.35;100.00;100551.88;1735773;82;21177;-66
2021/03/01 22:22:59;;;;;;;13.83;7.55;;;;;;;2.31;100.00;100553.44;1736027;82;21084;-65
2021/03/01 22:25:30;;;;;;;8.53;6.83;;;;;;;2.33;100.00;100556.13;1735836;82;21526;-66
2021/03/01 22:28:09;;;;;;;9.03;6.28;;;;;;;2.31;100.00;100549.54;1735751;82;21163;-65
2021/03/01 22:30:42;;;;;;;9.03;6.30;;;;;;;2.30;100.00;100550.36;1711411;82;21103;-66
2021/03/01 22:33:16;;;;;;;8.63;6.60;;;;;;;2.29;100.00;100545.07;1734788;82;21684;-65
2021/03/01 22:35:48;;;;;;;9.73;6.47;;;;;;;2.28;100.00;100542.88;1737541;82;20950;-66
2021/03/01 22:38:20;;;;;;;10.40;6.65;;;;;;;2.28;100.00;100536.78;1733461;82;21464;-66
2021/03/01 22:41:03;;;;;;;8.83;6.35;;;;;;;2.33;100.00;100540.50;1827819;78;22715;-65
2021/03/01 22:43:40;;;;;;;9.30;6.12;;;;;;;2.27;100.00;100542.39;1785258;79;20989;-66
2021/03/01 22:46:08;;;;;;;7.83;6.00;;;;;;;2.26;100.00;100537.11;1793658;79;21477;-66
2021/03/01 22:48:39;;;;;;;7.58;5.35;;;;;;;2.25;100.00;100536.22;1811067;78;20926;-65
2021/03/01 22:51:11;;;;;;;7.42;5.12;;;;;;;2.24;100.00;100539.64;1817561;78;21437;-66
2021/03/01 22:53:53;;;;;;;8.65;5.03;;;;;;;2.26;100.00;100527.59;1834608;77;22734;-66
2021/03/01 22:56:27;;;;;;;5.50;4.53;;;;;;;2.22;100.00;100530.86;1742375;81;21753;-66
2021/03/01 22:58:55;;;;;;;4.45;3.47;;;;;;;2.22;100.00;100530.86;1722976;81;22365;-66
2021/03/01 23:01:30;;;;;;;4.40;3.70;;;;;;;2.20;100.00;100523.39;1754463;81;21038;-66
2021/03/01 23:04:00;;;;;;;5.85;4.08;;;;;;;2.18;100.00;100528.93;1756998;81;21268;-67
2021/03/01 23:06:33;;;;;;;;;;;;;;;2.18;100.00;100522.02;1759542;81;20930;-66
2021/03/01 23:09:09;;;;;;;7.30;4.37;;;;;;;2.20;100.00;100524.69;1756951;81;20479;-68
2021/03/01 23:11:52;;;;;;;4.67;3.90;;;;;;;2.27;100.00;100524.58;1825256;77;23295;-65
2021/03/01 23:14:24;;;;;;;5.28;4.15;;;;;;;2.21;100.00;100524.77;1798871;79;21480;-65
2021/03/01 23:16:59;;;;;;;5.33;3.90;;;;;;;2.25;100.00;100528.82;1815553;78;22357;-66
2021/03/01 23:19:40;;;;;;;4.90;3.72;;;;;;;2.25;100.00;100527.52;1814445;78;21456;-66
2021/03/01 23:22:14;;;;;;;5.60;3.83;;;;;;;2.24;100.00;100524.02;1816693;78;20993;-66
2021/03/01 23:24:45;;;;;;;5.70;4.17;;;;;;;2.20;100.00;100521.67;1817480;78;21532;-66
2021/03/01 23:27:18;;;;;;;5.67;3.80;;;;;;;2.19;100.00;100520.30;1812662;78;21536;-65
2021/03/01 23:30:03;;;;;;;5.12;3.85;;;;;;;2.17;100.00;100513.72;1744444;80;21498;-66
2021/03/01 23:32:23;;;;;;;6.92;3.85;;;;;;;2.16;100.00;100513.64;1748453;81;21045;-65
2021/03/01 23:35:00;;;;;;;6.78;4.15;;;;;;;2.16;100.00;100514.95;1776061;80;21010;-65
2021/03/01 23:37:32;;;;;;;6.30;4.15;;;;;;;2.15;100.00;100511.86;1750409;81;21609;-65
2021/03/01 23:40:07;;;;;;;5.62;3.80;;;;;;;2.13;100.00;100511.78;1723761;82;21023;-66
2021/03/01 23:42:39;;;;;;;7.37;3.90;;;;;;;2.11;100.00;100512.12;1724696;80;21468;-64
2021/03/01 23:45:13;;;;;;;5.60;4.08;;;;;;;2.11;100.00;100509.92;1758318;78;21438;-66
2021/03/01 23:47:48;;;;;;;5.65;3.80;;;;;;;2.09;100.00;100505.05;1781375;79;21114;-65
2021/03/01 23:50:19;;;;;;;4.95;3.87;;;;;;;2.11;100.00;100506.02;1803282;79;20931;-65
2021/03/01 23:53:01;;;;;;;5.05;3.92;;;;;;;2.10;100.00;100501.22;1780647;78;21132;-65
2021/03/01 23:55:42;;;;;;;8.10;3.65;;;;;;;2.11;100.00;100508.63;1750352;80;21517;-69
2021/03/01 23:58:14;;;;;;;19.00;4.17;;;;;;;2.11;100.00;100495.61;1720512;82;21054;-65
